sensor_id;sensor_type;location;lat;lon;timestamp;P1;durP1;ratioP1;P2;durP2;ratioP2
21245;SDS011;10781;50.928;4.440;2024-01-25T00:01:11;41.85;;;7.32;;
21245;SDS011;10781;50.928;4.440;2024-01-25T00:03:37;38.80;;;6.43;;
21245;SDS011;10781;50.928;4.440;2024-01-25T00:06:03;39.58;;;6.80;;
21245;SDS011;10781;50.928;4.440;2024-01-25T00:08:31;44.25;;;7.80;;
21245;SDS011;10781;50.928;4.440;2024-01-25T00:10:56;40.47;;;6.47;;
21245;SDS011;10781;50.928;4.440;2024-01-25T00:13:22;45.78;;;7.88;;
21245;SDS011;10781;50.928;4.440;2024-01-25T00:15:47;42.60;;;7.15;;
21245;SDS011;10781;50.928;4.440;2024-01-25T00:18:13;40.63;;;6.47;;
21245;SDS011;10781;50.928;4.440;2024-01-25T00:20:39;38.63;;;6.25;;
21245;SDS011;10781;50.928;4.440;2024-01-25T00:23:06;37.33;;;6.75;;
21245;SDS011;10781;50.928;4.440;2024-01-25T00:25:32;42.63;;;7.28;;
21245;SDS011;10781;50.928;4.440;2024-01-25T00:27:57;46.72;;;7.55;;
21245;SDS011;10781;50.928;4.440;2024-01-25T00:30:23;53.60;;;7.55;;
21245;SDS011;10781;50.928;4.440;2024-01-25T00:32:49;42.22;;;7.47;;
21245;SDS011;10781;50.928;4.440;2024-01-25T00:35:14;43.63;;;7.63;;
21245;SDS011;10781;50.928;4.440;2024-01-25T00:37:41;39.70;;;7.32;;
21245;SDS011;10781;50.928;4.440;2024-01-25T00:40:07;36.78;;;6.65;;
21245;SDS011;10781;50.928;4.440;2024-01-25T00:42:35;37.47;;;6.45;;
21245;SDS011;10781;50.928;4.440;2024-01-25T00:45:06;29.92;;;6.15;;
21245;SDS011;10781;50.928;4.440;2024-01-25T00:47:32;34.10;;;6.35;;
21245;SDS011;10781;50.928;4.440;2024-01-25T00:49:58;48.17;;;6.90;;
21245;SDS011;10781;50.928;4.440;2024-01-25T00:52:24;39.05;;;6.55;;
21245;SDS011;10781;50.928;4.440;2024-01-25T00:54:50;37.10;;;6.63;;
21245;SDS011;10781;50.928;4.440;2024-01-25T00:57:16;44.58;;;6.63;;
21245;SDS011;10781;50.928;4.440;2024-01-25T00:59:42;36.67;;;6.28;;
21245;SDS011;10781;50.928;4.440;2024-01-25T01:02:12;30.38;;;6.07;;
21245;SDS011;10781;50.928;4.440;2024-01-25T01:04:38;43.90;;;7.45;;
21245;SDS011;10781;50.928;4.440;2024-01-25T01:07:05;38.28;;;7.32;;
21245;SDS011;10781;50.928;4.440;2024-01-25T01:09:31;29.00;;;5.40;;
21245;SDS011;10781;50.928;4.440;2024-01-25T01:11:57;37.28;;;6.53;;
21245;SDS011;10781;50.928;4.440;2024-01-25T01:14:23;46.20;;;7.53;;
21245;SDS011;10781;50.928;4.440;2024-01-25T01:16:49;31.92;;;6.18;;
21245;SDS011;10781;50.928;4.440;2024-01-25T01:19:15;34.95;;;7.03;;
21245;SDS011;10781;50.928;4.440;2024-01-25T01:21:41;36.22;;;6.07;;
21245;SDS011;10781;50.928;4.440;2024-01-25T01:24:12;38.67;;;6.20;;
21245;SDS011;10781;50.928;4.440;2024-01-25T01:26:38;33.60;;;5.88;;
21245;SDS011;10781;50.928;4.440;2024-01-25T01:29:03;40.28;;;6.65;;
21245;SDS011;10781;50.928;4.440;2024-01-25T01:31:29;33.45;;;6.63;;
21245;SDS011;10781;50.928;4.440;2024-01-25T01:33:55;35.85;;;6.22;;
21245;SDS011;10781;50.928;4.440;2024-01-25T01:36:20;42.40;;;7.05;;
21245;SDS011;10781;50.928;4.440;2024-01-25T01:38:46;37.00;;;6.20;;
21245;SDS011;10781;50.928;4.440;2024-01-25T01:41:12;40.38;;;7.05;;
21245;SDS011;10781;50.928;4.440;2024-01-25T01:43:38;41.67;;;6.70;;
21245;SDS011;10781;50.928;4.440;2024-01-25T01:46:10;46.95;;;6.55;;
21245;SDS011;10781;50.928;4.440;2024-01-25T01:48:40;37.03;;;6.07;;
21245;SDS011;10781;50.928;4.440;2024-01-25T01:51:07;28.67;;;6.35;;
21245;SDS011;10781;50.928;4.440;2024-01-25T01:53:33;40.58;;;6.88;;
21245;SDS011;10781;50.928;4.440;2024-01-25T01:56:00;42.03;;;6.60;;
21245;SDS011;10781;50.928;4.440;2024-01-25T01:58:26;33.17;;;5.72;;
21245;SDS011;10781;50.928;4.440;2024-01-25T02:00:53;38.95;;;7.10;;
21245;SDS011;10781;50.928;4.440;2024-01-25T02:03:21;44.47;;;6.95;;
21245;SDS011;10781;50.928;4.440;2024-01-25T02:05:46;32.05;;;6.30;;
21245;SDS011;10781;50.928;4.440;2024-01-25T02:08:12;41.08;;;6.40;;
21245;SDS011;10781;50.928;4.440;2024-01-25T02:10:38;40.03;;;5.80;;
21245;SDS011;10781;50.928;4.440;2024-01-25T02:13:04;35.13;;;6.68;;
21245;SDS011;10781;50.928;4.440;2024-01-25T02:15:29;38.80;;;6.78;;
21245;SDS011;10781;50.928;4.440;2024-01-25T02:17:55;37.28;;;6.65;;
21245;SDS011;10781;50.928;4.440;2024-01-25T02:20:21;36.72;;;6.38;;
21245;SDS011;10781;50.928;4.440;2024-01-25T02:22:47;39.35;;;6.70;;
21245;SDS011;10781;50.928;4.440;2024-01-25T02:25:12;35.85;;;6.50;;
21245;SDS011;10781;50.928;4.440;2024-01-25T02:27:38;32.25;;;5.95;;
21245;SDS011;10781;50.928;4.440;2024-01-25T02:30:07;43.92;;;6.53;;
21245;SDS011;10781;50.928;4.440;2024-01-25T02:32:33;40.35;;;6.80;;
21245;SDS011;10781;50.928;4.440;2024-01-25T02:34:59;31.88;;;5.95;;
21245;SDS011;10781;50.928;4.440;2024-01-25T02:37:25;46.47;;;6.45;;
21245;SDS011;10781;50.928;4.440;2024-01-25T02:39:51;40.55;;;7.32;;
21245;SDS011;10781;50.928;4.440;2024-01-25T02:42:18;37.40;;;6.82;;
21245;SDS011;10781;50.928;4.440;2024-01-25T02:44:43;38.17;;;7.38;;
21245;SDS011;10781;50.928;4.440;2024-01-25T02:47:09;41.45;;;6.80;;
21245;SDS011;10781;50.928;4.440;2024-01-25T02:49:35;38.28;;;7.65;;
21245;SDS011;10781;50.928;4.440;2024-01-25T02:52:01;39.35;;;7.20;;
21245;SDS011;10781;50.928;4.440;2024-01-25T02:54:26;33.47;;;6.45;;
21245;SDS011;10781;50.928;4.440;2024-01-25T02:56:52;43.42;;;6.63;;
21245;SDS011;10781;50.928;4.440;2024-01-25T02:59:18;39.83;;;6.20;;
21245;SDS011;10781;50.928;4.440;2024-01-25T03:01:44;34.55;;;6.32;;
21245;SDS011;10781;50.928;4.440;2024-01-25T03:04:10;27.67;;;5.88;;
21245;SDS011;10781;50.928;4.440;2024-01-25T03:06:36;32.83;;;6.05;;
21245;SDS011;10781;50.928;4.440;2024-01-25T03:09:02;41.75;;;6.70;;
21245;SDS011;10781;50.928;4.440;2024-01-25T03:11:30;36.42;;;6.20;;
21245;SDS011;10781;50.928;4.440;2024-01-25T03:13:56;43.00;;;13.10;;
21245;SDS011;10781;50.928;4.440;2024-01-25T03:16:22;33.63;;;8.05;;
21245;SDS011;10781;50.928;4.440;2024-01-25T03:18:47;41.47;;;6.93;;
21245;SDS011;10781;50.928;4.440;2024-01-25T03:21:13;35.75;;;6.38;;
21245;SDS011;10781;50.928;4.440;2024-01-25T03:23:39;37.40;;;6.30;;
21245;SDS011;10781;50.928;4.440;2024-01-25T03:26:04;52.88;;;6.72;;
21245;SDS011;10781;50.928;4.440;2024-01-25T03:28:30;35.40;;;5.85;;
21245;SDS011;10781;50.928;4.440;2024-01-25T03:30:56;42.75;;;7.25;;
21245;SDS011;10781;50.928;4.440;2024-01-25T03:33:22;35.38;;;5.50;;
21245;SDS011;10781;50.928;4.440;2024-01-25T03:35:48;37.88;;;6.25;;
21245;SDS011;10781;50.928;4.440;2024-01-25T03:38:13;46.60;;;7.07;;
21245;SDS011;10781;50.928;4.440;2024-01-25T03:40:39;38.08;;;6.40;;
21245;SDS011;10781;50.928;4.440;2024-01-25T03:43:05;36.25;;;6.25;;
21245;SDS011;10781;50.928;4.440;2024-01-25T03:45:30;39.45;;;6.85;;
21245;SDS011;10781;50.928;4.440;2024-01-25T03:47:57;38.13;;;6.95;;
21245;SDS011;10781;50.928;4.440;2024-01-25T03:50:23;33.65;;;5.78;;
21245;SDS011;10781;50.928;4.440;2024-01-25T03:52:49;37.08;;;5.45;;
21245;SDS011;10781;50.928;4.440;2024-01-25T03:55:14;31.25;;;6.20;;
21245;SDS011;10781;50.928;4.440;2024-01-25T03:57:40;34.00;;;6.15;;
21245;SDS011;10781;50.928;4.440;2024-01-25T04:00:07;39.38;;;6.75;;
21245;SDS011;10781;50.928;4.440;2024-01-25T04:02:34;37.15;;;6.53;;
21245;SDS011;10781;50.928;4.440;2024-01-25T04:04:59;30.42;;;6.15;;
21245;SDS011;10781;50.928;4.440;2024-01-25T04:07:25;31.73;;;6.00;;
21245;SDS011;10781;50.928;4.440;2024-01-25T04:09:51;31.00;;;6.15;;
21245;SDS011;10781;50.928;4.440;2024-01-25T04:12:16;39.53;;;6.15;;
21245;SDS011;10781;50.928;4.440;2024-01-25T04:14:42;27.40;;;5.72;;
21245;SDS011;10781;50.928;4.440;2024-01-25T04:17:08;34.83;;;6.70;;
21245;SDS011;10781;50.928;4.440;2024-01-25T04:19:35;39.00;;;7.35;;
21245;SDS011;10781;50.928;4.440;2024-01-25T04:22:01;32.30;;;5.35;;
21245;SDS011;10781;50.928;4.440;2024-01-25T04:24:26;37.58;;;6.22;;
21245;SDS011;10781;50.928;4.440;2024-01-25T04:26:52;38.75;;;6.53;;
21245;SDS011;10781;50.928;4.440;2024-01-25T04:29:18;45.05;;;7.20;;
21245;SDS011;10781;50.928;4.440;2024-01-25T04:31:43;38.50;;;7.15;;
21245;SDS011;10781;50.928;4.440;2024-01-25T04:34:10;38.58;;;6.53;;
21245;SDS011;10781;50.928;4.440;2024-01-25T04:36:37;37.25;;;6.35;;
21245;SDS011;10781;50.928;4.440;2024-01-25T04:39:03;39.85;;;6.55;;
21245;SDS011;10781;50.928;4.440;2024-01-25T04:41:28;33.80;;;6.10;;
21245;SDS011;10781;50.928;4.440;2024-01-25T04:43:54;34.85;;;6.85;;
21245;SDS011;10781;50.928;4.440;2024-01-25T04:46:20;37.22;;;6.45;;
21245;SDS011;10781;50.928;4.440;2024-01-25T04:48:45;36.67;;;7.43;;
21245;SDS011;10781;50.928;4.440;2024-01-25T04:51:18;38.15;;;6.63;;
21245;SDS011;10781;50.928;4.440;2024-01-25T04:53:47;40.30;;;6.68;;
21245;SDS011;10781;50.928;4.440;2024-01-25T04:56:13;45.15;;;6.97;;
21245;SDS011;10781;50.928;4.440;2024-01-25T04:58:38;40.15;;;7.10;;
21245;SDS011;10781;50.928;4.440;2024-01-25T05:01:04;48.05;;;7.78;;
21245;SDS011;10781;50.928;4.440;2024-01-25T05:03:32;40.33;;;7.53;;
21245;SDS011;10781;50.928;4.440;2024-01-25T05:05:58;38.50;;;6.85;;
21245;SDS011;10781;50.928;4.440;2024-01-25T05:08:26;32.78;;;6.55;;
21245;SDS011;10781;50.928;4.440;2024-01-25T05:10:52;53.10;;;8.10;;
21245;SDS011;10781;50.928;4.440;2024-01-25T05:13:18;40.22;;;6.72;;
21245;SDS011;10781;50.928;4.440;2024-01-25T05:15:44;43.42;;;7.03;;
21245;SDS011;10781;50.928;4.440;2024-01-25T05:18:09;34.78;;;6.82;;
21245;SDS011;10781;50.928;4.440;2024-01-25T05:20:35;35.30;;;6.40;;
21245;SDS011;10781;50.928;4.440;2024-01-25T05:23:02;35.17;;;6.78;;
21245;SDS011;10781;50.928;4.440;2024-01-25T05:25:29;31.77;;;7.18;;
21245;SDS011;10781;50.928;4.440;2024-01-25T05:27:55;43.08;;;6.72;;
21245;SDS011;10781;50.928;4.440;2024-01-25T05:30:21;46.85;;;7.90;;
21245;SDS011;10781;50.928;4.440;2024-01-25T05:32:47;42.63;;;6.60;;
21245;SDS011;10781;50.928;4.440;2024-01-25T05:35:18;44.35;;;6.72;;
21245;SDS011;10781;50.928;4.440;2024-01-25T05:37:44;38.33;;;6.60;;
21245;SDS011;10781;50.928;4.440;2024-01-25T05:40:09;42.67;;;6.97;;
21245;SDS011;10781;50.928;4.440;2024-01-25T05:42:35;38.15;;;7.40;;
21245;SDS011;10781;50.928;4.440;2024-01-25T05:45:02;38.22;;;7.20;;
21245;SDS011;10781;50.928;4.440;2024-01-25T05:47:28;35.13;;;6.93;;
21245;SDS011;10781;50.928;4.440;2024-01-25T05:49:55;32.30;;;6.78;;
21245;SDS011;10781;50.928;4.440;2024-01-25T05:52:21;35.70;;;6.90;;
21245;SDS011;10781;50.928;4.440;2024-01-25T05:54:47;49.40;;;6.97;;
21245;SDS011;10781;50.928;4.440;2024-01-25T05:57:13;39.25;;;7.43;;
21245;SDS011;10781;50.928;4.440;2024-01-25T05:59:39;47.05;;;6.97;;
21245;SDS011;10781;50.928;4.440;2024-01-25T06:02:05;39.05;;;6.63;;
21245;SDS011;10781;50.928;4.440;2024-01-25T06:04:31;34.55;;;7.35;;
21245;SDS011;10781;50.928;4.440;2024-01-25T06:06:56;33.15;;;5.95;;
21245;SDS011;10781;50.928;4.440;2024-01-25T06:09:23;43.78;;;7.10;;
21245;SDS011;10781;50.928;4.440;2024-01-25T06:11:49;36.85;;;7.85;;
21245;SDS011;10781;50.928;4.440;2024-01-25T06:14:16;37.50;;;6.70;;
21245;SDS011;10781;50.928;4.440;2024-01-25T06:16:43;34.22;;;6.47;;
21245;SDS011;10781;50.928;4.440;2024-01-25T06:19:09;38.10;;;7.07;;
21245;SDS011;10781;50.928;4.440;2024-01-25T06:21:35;49.17;;;7.32;;
21245;SDS011;10781;50.928;4.440;2024-01-25T06:24:02;45.88;;;7.70;;
21245;SDS011;10781;50.928;4.440;2024-01-25T06:26:29;40.20;;;7.68;;
21245;SDS011;10781;50.928;4.440;2024-01-25T06:28:54;41.85;;;7.90;;
21245;SDS011;10781;50.928;4.440;2024-01-25T06:31:21;40.28;;;7.90;;
21245;SDS011;10781;50.928;4.440;2024-01-25T06:33:47;34.65;;;7.57;;
21245;SDS011;10781;50.928;4.440;2024-01-25T06:36:15;43.08;;;8.23;;
21245;SDS011;10781;50.928;4.440;2024-01-25T06:38:44;34.28;;;7.30;;
21245;SDS011;10781;50.928;4.440;2024-01-25T06:41:10;31.88;;;6.40;;
21245;SDS011;10781;50.928;4.440;2024-01-25T06:43:36;47.53;;;8.68;;
21245;SDS011;10781;50.928;4.440;2024-01-25T06:46:02;41.22;;;7.78;;
21245;SDS011;10781;50.928;4.440;2024-01-25T06:48:28;44.13;;;8.30;;
21245;SDS011;10781;50.928;4.440;2024-01-25T06:50:53;40.92;;;7.60;;
21245;SDS011;10781;50.928;4.440;2024-01-25T06:53:20;44.50;;;6.90;;
21245;SDS011;10781;50.928;4.440;2024-01-25T06:55:46;43.40;;;8.00;;
21245;SDS011;10781;50.928;4.440;2024-01-25T06:58:12;44.70;;;8.15;;
21245;SDS011;10781;50.928;4.440;2024-01-25T07:00:38;40.92;;;8.68;;
21245;SDS011;10781;50.928;4.440;2024-01-25T07:03:04;42.10;;;8.65;;
21245;SDS011;10781;50.928;4.440;2024-01-25T07:05:30;37.60;;;8.57;;
21245;SDS011;10781;50.928;4.440;2024-01-25T07:07:58;45.33;;;8.75;;
21245;SDS011;10781;50.928;4.440;2024-01-25T07:10:24;38.33;;;8.32;;
21245;SDS011;10781;50.928;4.440;2024-01-25T07:12:50;41.50;;;8.68;;
21245;SDS011;10781;50.928;4.440;2024-01-25T07:15:17;42.53;;;8.60;;
21245;SDS011;10781;50.928;4.440;2024-01-25T07:17:43;45.97;;;8.65;;
21245;SDS011;10781;50.928;4.440;2024-01-25T07:20:08;51.88;;;9.32;;
21245;SDS011;10781;50.928;4.440;2024-01-25T07:22:34;41.08;;;8.13;;
21245;SDS011;10781;50.928;4.440;2024-01-25T07:25:01;54.38;;;9.02;;
21245;SDS011;10781;50.928;4.440;2024-01-25T07:27:26;39.97;;;8.65;;
21245;SDS011;10781;50.928;4.440;2024-01-25T07:29:52;44.47;;;9.20;;
21245;SDS011;10781;50.928;4.440;2024-01-25T07:32:18;43.35;;;10.23;;
21245;SDS011;10781;50.928;4.440;2024-01-25T07:34:45;43.10;;;8.68;;
21245;SDS011;10781;50.928;4.440;2024-01-25T07:37:11;39.45;;;8.68;;
21245;SDS011;10781;50.928;4.440;2024-01-25T07:39:37;49.60;;;9.38;;
21245;SDS011;10781;50.928;4.440;2024-01-25T07:42:03;42.85;;;9.48;;
21245;SDS011;10781;50.928;4.440;2024-01-25T07:44:28;51.35;;;10.18;;
21245;SDS011;10781;50.928;4.440;2024-01-25T07:46:54;52.22;;;10.02;;
21245;SDS011;10781;50.928;4.440;2024-01-25T07:49:20;46.15;;;9.52;;
21245;SDS011;10781;50.928;4.440;2024-01-25T07:51:45;53.33;;;10.23;;
21245;SDS011;10781;50.928;4.440;2024-01-25T07:54:12;47.13;;;9.85;;
21245;SDS011;10781;50.928;4.440;2024-01-25T07:56:38;49.30;;;9.68;;
21245;SDS011;10781;50.928;4.440;2024-01-25T07:59:04;48.97;;;11.77;;
21245;SDS011;10781;50.928;4.440;2024-01-25T08:01:30;44.33;;;11.45;;
21245;SDS011;10781;50.928;4.440;2024-01-25T08:03:55;55.25;;;11.88;;
21245;SDS011;10781;50.928;4.440;2024-01-25T08:06:21;49.25;;;12.10;;
21245;SDS011;10781;50.928;4.440;2024-01-25T08:08:47;46.00;;;12.43;;
21245;SDS011;10781;50.928;4.440;2024-01-25T08:11:13;48.05;;;13.40;;
21245;SDS011;10781;50.928;4.440;2024-01-25T08:13:43;49.42;;;12.93;;
21245;SDS011;10781;50.928;4.440;2024-01-25T08:16:09;48.08;;;12.77;;
21245;SDS011;10781;50.928;4.440;2024-01-25T08:18:39;49.90;;;13.73;;
21245;SDS011;10781;50.928;4.440;2024-01-25T08:21:05;50.83;;;13.43;;
21245;SDS011;10781;50.928;4.440;2024-01-25T08:23:31;43.97;;;13.15;;
21245;SDS011;10781;50.928;4.440;2024-01-25T08:25:56;47.25;;;13.30;;
21245;SDS011;10781;50.928;4.440;2024-01-25T08:28:22;58.72;;;14.73;;
21245;SDS011;10781;50.928;4.440;2024-01-25T08:30:48;51.97;;;13.95;;
21245;SDS011;10781;50.928;4.440;2024-01-25T08:33:14;49.40;;;13.82;;
21245;SDS011;10781;50.928;4.440;2024-01-25T08:35:40;42.67;;;13.50;;
21245;SDS011;10781;50.928;4.440;2024-01-25T08:38:06;47.97;;;14.57;;
21245;SDS011;10781;50.928;4.440;2024-01-25T08:40:32;42.20;;;14.00;;
21245;SDS011;10781;50.928;4.440;2024-01-25T08:42:58;47.03;;;13.48;;
21245;SDS011;10781;50.928;4.440;2024-01-25T08:45:24;52.47;;;14.00;;
21245;SDS011;10781;50.928;4.440;2024-01-25T08:47:50;40.95;;;14.00;;
21245;SDS011;10781;50.928;4.440;2024-01-25T08:50:17;45.70;;;13.57;;
21245;SDS011;10781;50.928;4.440;2024-01-25T08:52:43;41.25;;;14.00;;
21245;SDS011;10781;50.928;4.440;2024-01-25T08:55:09;40.85;;;14.35;;
21245;SDS011;10781;50.928;4.440;2024-01-25T08:57:35;41.47;;;13.73;;
21245;SDS011;10781;50.928;4.440;2024-01-25T09:00:01;38.60;;;13.48;;
21245;SDS011;10781;50.928;4.440;2024-01-25T09:02:27;41.47;;;14.32;;
21245;SDS011;10781;50.928;4.440;2024-01-25T09:04:54;39.33;;;13.18;;
21245;SDS011;10781;50.928;4.440;2024-01-25T09:07:21;34.00;;;12.60;;
21245;SDS011;10781;50.928;4.440;2024-01-25T09:09:47;33.08;;;13.23;;
21245;SDS011;10781;50.928;4.440;2024-01-25T09:12:13;33.97;;;12.88;;
21245;SDS011;10781;50.928;4.440;2024-01-25T09:14:41;37.53;;;13.60;;
21245;SDS011;10781;50.928;4.440;2024-01-25T09:17:07;29.20;;;12.88;;
21245;SDS011;10781;50.928;4.440;2024-01-25T09:19:33;30.33;;;12.13;;
21245;SDS011;10781;50.928;4.440;2024-01-25T09:21:59;31.75;;;12.18;;
21245;SDS011;10781;50.928;4.440;2024-01-25T09:24:29;32.33;;;12.20;;
21245;SDS011;10781;50.928;4.440;2024-01-25T09:26:55;24.30;;;11.45;;
21245;SDS011;10781;50.928;4.440;2024-01-25T09:29:21;29.88;;;11.50;;
21245;SDS011;10781;50.928;4.440;2024-01-25T09:31:46;27.05;;;11.70;;
21245;SDS011;10781;50.928;4.440;2024-01-25T09:34:12;31.25;;;11.80;;
21245;SDS011;10781;50.928;4.440;2024-01-25T09:36:37;31.40;;;11.70;;
21245;SDS011;10781;50.928;4.440;2024-01-25T09:39:03;29.05;;;11.63;;
21245;SDS011;10781;50.928;4.440;2024-01-25T09:41:29;29.30;;;12.02;;
21245;SDS011;10781;50.928;4.440;2024-01-25T09:43:55;22.48;;;10.05;;
21245;SDS011;10781;50.928;4.440;2024-01-25T09:46:20;26.77;;;11.48;;
21245;SDS011;10781;50.928;4.440;2024-01-25T09:48:48;30.27;;;10.57;;
21245;SDS011;10781;50.928;4.440;2024-01-25T09:51:14;28.38;;;11.00;;
21245;SDS011;10781;50.928;4.440;2024-01-25T09:53:40;26.17;;;11.32;;
21245;SDS011;10781;50.928;4.440;2024-01-25T09:56:07;25.88;;;11.20;;
21245;SDS011;10781;50.928;4.440;2024-01-25T10:01:11;31.02;;;11.35;;
21245;SDS011;10781;50.928;4.440;2024-01-25T10:03:38;28.05;;;10.88;;
21245;SDS011;10781;50.928;4.440;2024-01-25T10:06:07;27.85;;;12.30;;
21245;SDS011;10781;50.928;4.440;2024-01-25T10:08:34;31.17;;;12.38;;
21245;SDS011;10781;50.928;4.440;2024-01-25T10:10:59;29.80;;;12.23;;
21245;SDS011;10781;50.928;4.440;2024-01-25T10:13:26;27.83;;;12.05;;
21245;SDS011;10781;50.928;4.440;2024-01-25T10:15:55;30.08;;;12.57;;
21245;SDS011;10781;50.928;4.440;2024-01-25T10:18:24;28.85;;;12.27;;
21245;SDS011;10781;50.928;4.440;2024-01-25T10:20:51;37.00;;;12.77;;
21245;SDS011;10781;50.928;4.440;2024-01-25T10:23:18;30.60;;;12.30;;
21245;SDS011;10781;50.928;4.440;2024-01-25T10:25:44;33.60;;;12.93;;
21245;SDS011;10781;50.928;4.440;2024-01-25T10:28:09;26.58;;;13.18;;
21245;SDS011;10781;50.928;4.440;2024-01-25T10:30:37;35.78;;;13.32;;
21245;SDS011;10781;50.928;4.440;2024-01-25T10:33:03;34.67;;;12.52;;
21245;SDS011;10781;50.928;4.440;2024-01-25T10:35:30;32.90;;;13.40;;
21245;SDS011;10781;50.928;4.440;2024-01-25T10:37:57;34.83;;;13.65;;
21245;SDS011;10781;50.928;4.440;2024-01-25T10:40:22;38.50;;;13.15;;
21245;SDS011;10781;50.928;4.440;2024-01-25T10:42:48;39.17;;;14.50;;
21245;SDS011;10781;50.928;4.440;2024-01-25T10:45:15;34.15;;;14.05;;
21245;SDS011;10781;50.928;4.440;2024-01-25T10:47:41;35.67;;;12.52;;
21245;SDS011;10781;50.928;4.440;2024-01-25T10:50:07;33.08;;;13.15;;
21245;SDS011;10781;50.928;4.440;2024-01-25T10:52:34;39.70;;;13.70;;
21245;SDS011;10781;50.928;4.440;2024-01-25T10:55:02;37.03;;;12.75;;
21245;SDS011;10781;50.928;4.440;2024-01-25T10:57:37;38.83;;;13.05;;
21245;SDS011;10781;50.928;4.440;2024-01-25T11:00:09;33.08;;;12.75;;
21245;SDS011;10781;50.928;4.440;2024-01-25T11:02:36;35.42;;;11.73;;
21245;SDS011;10781;50.928;4.440;2024-01-25T11:05:06;33.38;;;11.52;;
21245;SDS011;10781;50.928;4.440;2024-01-25T11:07:43;32.78;;;11.48;;
21245;SDS011;10781;50.928;4.440;2024-01-25T11:10:17;31.60;;;11.40;;
21245;SDS011;10781;50.928;4.440;2024-01-25T11:12:51;31.55;;;10.68;;
21245;SDS011;10781;50.928;4.440;2024-01-25T11:15:30;33.10;;;10.70;;
21245;SDS011;10781;50.928;4.440;2024-01-25T11:17:57;31.40;;;10.27;;
21245;SDS011;10781;50.928;4.440;2024-01-25T11:20:24;22.98;;;9.35;;
21245;SDS011;10781;50.928;4.440;2024-01-25T11:23:24;32.10;;;10.85;;
21245;SDS011;10781;50.928;4.440;2024-01-25T11:25:46;33.13;;;10.32;;
21245;SDS011;10781;50.928;4.440;2024-01-25T11:28:13;33.55;;;10.50;;
21245;SDS011;10781;50.928;4.440;2024-01-25T11:30:44;28.58;;;9.88;;
21245;SDS011;10781;50.928;4.440;2024-01-25T11:33:09;31.73;;;10.48;;
21245;SDS011;10781;50.928;4.440;2024-01-25T11:35:36;29.35;;;10.70;;
21245;SDS011;10781;50.928;4.440;2024-01-25T11:38:02;31.30;;;10.40;;
21245;SDS011;10781;50.928;4.440;2024-01-25T11:40:29;30.42;;;10.15;;
21245;SDS011;10781;50.928;4.440;2024-01-25T11:42:56;24.65;;;9.27;;
21245;SDS011;10781;50.928;4.440;2024-01-25T11:45:22;34.38;;;11.15;;
21245;SDS011;10781;50.928;4.440;2024-01-25T11:47:47;21.05;;;8.80;;
21245;SDS011;10781;50.928;4.440;2024-01-25T11:50:14;29.08;;;10.40;;
21245;SDS011;10781;50.928;4.440;2024-01-25T11:52:40;30.35;;;10.35;;
21245;SDS011;10781;50.928;4.440;2024-01-25T11:55:06;22.17;;;9.38;;
21245;SDS011;10781;50.928;4.440;2024-01-25T11:57:37;27.42;;;9.38;;
21245;SDS011;10781;50.928;4.440;2024-01-25T12:00:06;27.17;;;9.25;;
21245;SDS011;10781;50.928;4.440;2024-01-25T12:02:34;23.08;;;8.43;;
21245;SDS011;10781;50.928;4.440;2024-01-25T12:05:03;23.75;;;8.23;;
21245;SDS011;10781;50.928;4.440;2024-01-25T12:07:30;28.55;;;9.15;;
21245;SDS011;10781;50.928;4.440;2024-01-25T12:09:57;27.50;;;8.75;;
21245;SDS011;10781;50.928;4.440;2024-01-25T12:12:30;24.67;;;8.68;;
21245;SDS011;10781;50.928;4.440;2024-01-25T12:14:59;25.25;;;9.13;;
21245;SDS011;10781;50.928;4.440;2024-01-25T12:17:29;24.00;;;8.63;;
21245;SDS011;10781;50.928;4.440;2024-01-25T12:19:56;23.42;;;8.43;;
21245;SDS011;10781;50.928;4.440;2024-01-25T12:22:22;27.98;;;8.73;;
21245;SDS011;10781;50.928;4.440;2024-01-25T12:24:50;29.00;;;9.20;;
21245;SDS011;10781;50.928;4.440;2024-01-25T12:27:19;32.22;;;10.02;;
21245;SDS011;10781;50.928;4.440;2024-01-25T12:29:50;25.35;;;8.82;;
21245;SDS011;10781;50.928;4.440;2024-01-25T12:32:16;26.88;;;8.93;;
21245;SDS011;10781;50.928;4.440;2024-01-25T12:34:42;21.83;;;8.85;;
21245;SDS011;10781;50.928;4.440;2024-01-25T12:37:18;26.40;;;9.23;;
21245;SDS011;10781;50.928;4.440;2024-01-25T12:39:44;29.33;;;9.15;;
21245;SDS011;10781;50.928;4.440;2024-01-25T12:42:09;25.98;;;9.43;;
21245;SDS011;10781;50.928;4.440;2024-01-25T12:44:35;23.90;;;9.27;;
21245;SDS011;10781;50.928;4.440;2024-01-25T12:47:01;25.75;;;8.85;;
21245;SDS011;10781;50.928;4.440;2024-01-25T12:49:27;21.85;;;8.82;;
21245;SDS011;10781;50.928;4.440;2024-01-25T12:51:54;26.35;;;9.00;;
21245;SDS011;10781;50.928;4.440;2024-01-25T12:54:20;21.50;;;10.13;;
21245;SDS011;10781;50.928;4.440;2024-01-25T12:56:45;24.10;;;10.52;;
21245;SDS011;10781;50.928;4.440;2024-01-25T12:59:11;20.17;;;10.35;;
21245;SDS011;10781;50.928;4.440;2024-01-25T13:01:37;15.88;;;9.38;;
21245;SDS011;10781;50.928;4.440;2024-01-25T13:04:03;22.20;;;10.52;;
21245;SDS011;10781;50.928;4.440;2024-01-25T13:06:28;21.10;;;10.40;;
21245;SDS011;10781;50.928;4.440;2024-01-25T13:08:54;25.00;;;10.95;;
21245;SDS011;10781;50.928;4.440;2024-01-25T13:11:20;21.70;;;10.70;;
21245;SDS011;10781;50.928;4.440;2024-01-25T13:13:45;23.92;;;11.13;;
21245;SDS011;10781;50.928;4.440;2024-01-25T13:16:11;19.85;;;10.60;;
21245;SDS011;10781;50.928;4.440;2024-01-25T13:18:38;18.20;;;10.00;;
21245;SDS011;10781;50.928;4.440;2024-01-25T13:21:04;18.63;;;9.70;;
21245;SDS011;10781;50.928;4.440;2024-01-25T13:23:29;21.40;;;9.15;;
21245;SDS011;10781;50.928;4.440;2024-01-25T13:25:55;16.80;;;8.23;;
21245;SDS011;10781;50.928;4.440;2024-01-25T13:28:21;17.50;;;7.97;;
21245;SDS011;10781;50.928;4.440;2024-01-25T13:30:46;14.45;;;7.93;;
21245;SDS011;10781;50.928;4.440;2024-01-25T13:33:12;14.82;;;7.82;;
21245;SDS011;10781;50.928;4.440;2024-01-25T13:35:37;13.63;;;7.30;;
21245;SDS011;10781;50.928;4.440;2024-01-25T13:38:03;11.70;;;7.50;;
21245;SDS011;10781;50.928;4.440;2024-01-25T13:40:29;15.38;;;7.00;;
21245;SDS011;10781;50.928;4.440;2024-01-25T13:42:55;14.05;;;6.75;;
21245;SDS011;10781;50.928;4.440;2024-01-25T13:45:20;13.55;;;6.22;;
21245;SDS011;10781;50.928;4.440;2024-01-25T13:47:46;9.90;;;7.00;;
21245;SDS011;10781;50.928;4.440;2024-01-25T13:50:12;13.27;;;6.55;;
21245;SDS011;10781;50.928;4.440;2024-01-25T13:52:37;13.95;;;6.82;;
21245;SDS011;10781;50.928;4.440;2024-01-25T13:55:03;14.15;;;7.38;;
21245;SDS011;10781;50.928;4.440;2024-01-25T13:57:29;11.80;;;7.30;;
21245;SDS011;10781;50.928;4.440;2024-01-25T13:59:54;12.70;;;7.63;;
21245;SDS011;10781;50.928;4.440;2024-01-25T14:02:20;11.63;;;7.40;;
21245;SDS011;10781;50.928;4.440;2024-01-25T14:04:46;12.85;;;7.20;;
21245;SDS011;10781;50.928;4.440;2024-01-25T14:07:13;13.50;;;8.48;;
21245;SDS011;10781;50.928;4.440;2024-01-25T14:09:40;12.80;;;8.20;;
21245;SDS011;10781;50.928;4.440;2024-01-25T14:12:07;15.10;;;9.13;;
21245;SDS011;10781;50.928;4.440;2024-01-25T14:14:33;14.38;;;8.65;;
21245;SDS011;10781;50.928;4.440;2024-01-25T14:16:58;19.13;;;9.60;;
21245;SDS011;10781;50.928;4.440;2024-01-25T14:19:24;12.90;;;9.13;;
21245;SDS011;10781;50.928;4.440;2024-01-25T14:21:50;14.18;;;9.90;;
21245;SDS011;10781;50.928;4.440;2024-01-25T14:24:16;12.07;;;9.43;;
21245;SDS011;10781;50.928;4.440;2024-01-25T14:26:43;14.88;;;10.13;;
21245;SDS011;10781;50.928;4.440;2024-01-25T14:29:09;16.73;;;10.68;;